createdAt,value
2022-11-23T00:01:34.337Z,100262.94
2022-11-23T00:04:04.767Z,100278.75
2022-11-23T00:06:32.865Z,100283.22
2022-11-23T00:09:00.172Z,100302.59
2022-11-23T00:11:28.809Z,100294.69
2022-11-23T00:13:57.172Z,100307.13
2022-11-23T00:16:28.929Z,100303.66
2022-11-23T00:19:00.007Z,100301.94
2022-11-23T00:21:30.185Z,100307.72
2022-11-23T00:23:57.858Z,100301.41
2022-11-23T00:26:25.064Z,100308.34
2022-11-23T00:28:55.557Z,100311.81
2022-11-23T00:31:25.621Z,100322.50
2022-11-23T00:33:55.371Z,100318.94
2022-11-23T00:36:24.253Z,100328.19
2022-11-23T00:38:54.587Z,100329.19
2022-11-23T00:41:24.762Z,100329.28
2022-11-23T00:43:52.623Z,100323.88
2022-11-23T00:46:25.485Z,100327.69
2022-11-23T00:48:55.362Z,100327.69
2022-11-23T00:51:25.631Z,100331.03
2022-11-23T00:53:53.608Z,100321.38
2022-11-23T00:56:21.157Z,100331.94
2022-11-23T00:58:50.935Z,100339.09
2022-11-23T01:01:19.690Z,100342.56
2022-11-23T01:03:49.015Z,100346.94
2022-11-23T01:06:19.174Z,100345.28
2022-11-23T01:08:58.291Z,100349.88
2022-11-23T01:11:28.610Z,100353.53
2022-11-23T01:13:57.026Z,100346.56
2022-11-23T01:16:29.503Z,100354.53
2022-11-23T01:18:58.992Z,100357.28
2022-11-23T01:21:28.156Z,100362.50
2022-11-23T01:23:56.503Z,100363.53
2022-11-23T01:26:24.476Z,100368.75
2022-11-23T01:28:52.033Z,100361.06
2022-11-23T01:31:21.648Z,100364.53
2022-11-23T01:33:53.478Z,100361.88
2022-11-23T01:36:23.604Z,100375.91
2022-11-23T01:38:50.809Z,100374.16
2022-11-23T01:41:24.152Z,100361.66
2022-11-23T01:43:52.847Z,100382.13
2022-11-23T01:46:20.568Z,100371.41
2022-11-23T01:49:07.157Z,100369.63
2022-11-23T01:51:40.102Z,100370.47
2022-11-23T01:54:15.351Z,100366.81
2022-11-23T01:56:44.802Z,100370.25
2022-11-23T01:59:15.632Z,100372.13
2022-11-23T02:01:43.557Z,100382.59
2022-11-23T02:04:21.296Z,100390.75
2022-11-23T02:06:48.913Z,100386.38
2022-11-23T02:09:17.107Z,100394.25
2022-11-23T02:11:44.909Z,100401.28
2022-11-23T02:14:12.518Z,100405.66
2022-11-23T02:16:40.709Z,100394.16
2022-11-23T02:19:16.693Z,100412.63
2022-11-23T02:21:46.318Z,100414.44
2022-11-23T02:24:40.145Z,100403.81
2022-11-23T02:27:07.982Z,100417.34
2022-11-23T02:29:35.717Z,100423.38
2022-11-23T02:32:03.299Z,100418.16
2022-11-23T02:34:31.115Z,100408.38
2022-11-23T02:37:01.161Z,100415.41
2022-11-23T02:39:38.068Z,100414.56
2022-11-23T02:42:05.986Z,100427.06
2022-11-23T02:44:46.052Z,100425.19
2022-11-23T02:47:13.536Z,100419.78
2022-11-23T02:49:42.278Z,100427.75
2022-11-23T02:52:09.714Z,100425.84
2022-11-23T02:54:37.069Z,100426.78
2022-11-23T02:57:05.599Z,100434.63
2022-11-23T02:59:34.337Z,100439.94
2022-11-23T03:02:04.406Z,100438.97
2022-11-23T03:04:31.890Z,100444.22
2022-11-23T03:06:59.793Z,100444.31
2022-11-23T03:09:28.279Z,100444.31
2022-11-23T03:11:55.918Z,100445.25
2022-11-23T03:14:24.280Z,100442.50
2022-11-23T03:16:51.515Z,100451.28
2022-11-23T03:19:19.369Z,100452.28
2022-11-23T03:21:46.697Z,100454.16
2022-11-23T03:24:14.271Z,100458.41
2022-11-23T03:26:41.661Z,100460.97
2022-11-23T03:29:09.173Z,100456.44
2022-11-23T03:31:36.873Z,100469.66
2022-11-23T03:34:04.261Z,100474.03
2022-11-23T03:36:31.615Z,100473.19
2022-11-23T03:38:59.280Z,100481.94
2022-11-23T03:41:26.512Z,100479.28
2022-11-23T03:43:53.826Z,100488.09
2022-11-23T03:46:20.989Z,100491.66
2022-11-23T03:48:48.638Z,100488.31
2022-11-23T03:51:16.029Z,100489.22
2022-11-23T03:53:43.466Z,100500.63
2022-11-23T03:56:10.906Z,100497.19
2022-11-23T03:58:39.039Z,100503.28
2022-11-23T04:01:06.281Z,100510.47
2022-11-23T04:03:34.575Z,100510.38
2022-11-23T04:06:01.977Z,100509.38
2022-11-23T04:08:29.703Z,100514.50
2022-11-23T04:10:58.301Z,100515.50
2022-11-23T04:13:25.578Z,100522.53
2022-11-23T04:15:52.776Z,100526.13
2022-11-23T04:18:21.047Z,100517.22
2022-11-23T04:20:48.300Z,100515.41
2022-11-23T04:23:15.930Z,100518.16
2022-11-23T04:25:43.248Z,100533.22
2022-11-23T04:28:10.508Z,100523.38
2022-11-23T04:30:37.910Z,100529.56
2022-11-23T04:33:05.183Z,100527.84
2022-11-23T04:35:32.542Z,100518.94
2022-11-23T04:38:01.866Z,100518.88
2022-11-23T04:40:31.624Z,100510.78
2022-11-23T04:43:01.895Z,100503.44
2022-11-23T04:45:29.754Z,100510.47
2022-11-23T04:47:57.105Z,100514.00
2022-11-23T04:50:24.471Z,100502.63
2022-11-23T04:52:51.783Z,100515.72
2022-11-23T04:55:19.074Z,100525.28
2022-11-23T04:57:46.271Z,100519.97
2022-11-23T05:00:15.473Z,100527.03
2022-11-23T05:02:43.190Z,100532.34
2022-11-23T05:05:10.706Z,100533.25
2022-11-23T05:07:38.932Z,100527.94
2022-11-23T05:10:06.892Z,100530.53
2022-11-23T05:12:36.701Z,100536.72
2022-11-23T05:15:05.526Z,100536.72
2022-11-23T05:17:34.314Z,100537.50
2022-11-23T05:20:01.845Z,100546.19
2022-11-23T05:22:31.150Z,100546.16
2022-11-23T05:24:59.039Z,100562.03
2022-11-23T05:27:26.732Z,100545.13
2022-11-23T05:29:55.885Z,100555.75
2022-11-23T05:32:23.083Z,100553.03
2022-11-23T05:34:50.373Z,100550.19
2022-11-23T05:37:45.835Z,100552.75
2022-11-23T05:40:13.558Z,100550.00
2022-11-23T05:42:43.156Z,100548.16
2022-11-23T05:45:11.848Z,100561.38
2022-11-23T05:47:40.281Z,100561.38
2022-11-23T05:50:08.266Z,100552.47
2022-11-23T05:52:36.462Z,100555.06
2022-11-23T05:55:04.135Z,100556.66
2022-11-23T05:57:33.728Z,100564.47
2022-11-23T06:00:03.299Z,100557.50
2022-11-23T06:02:30.789Z,100560.91
2022-11-23T06:04:57.950Z,100568.16
2022-11-23T06:07:25.161Z,100569.00
2022-11-23T06:09:52.505Z,100567.28
2022-11-23T06:12:21.374Z,100574.53
2022-11-23T06:14:51.284Z,100562.97
2022-11-23T06:17:18.504Z,100568.88
2022-11-23T06:19:47.655Z,100573.03
2022-11-23T06:22:17.882Z,100565.91
2022-11-23T06:24:51.681Z,100565.13
2022-11-23T06:27:20.142Z,100563.91
2022-11-23T06:29:47.479Z,100567.38
2022-11-23T06:32:16.455Z,100568.88
2022-11-23T06:34:44.129Z,100574.19
2022-11-23T06:37:13.468Z,100567.91
2022-11-23T06:39:41.386Z,100578.50
2022-11-23T06:42:37.282Z,100579.38
2022-11-23T06:44:58.245Z,100575.63
2022-11-23T06:47:26.574Z,100576.34
2022-11-23T06:49:54.275Z,100577.13
2022-11-23T06:52:21.887Z,100580.59
2022-11-23T06:54:49.202Z,100574.31
2022-11-23T06:57:16.486Z,100576.00
2022-11-23T06:59:45.673Z,100560.72
2022-11-23T07:02:14.884Z,100558.53
2022-11-23T07:04:43.255Z,100560.84
2022-11-23T07:07:10.857Z,100565.78
2022-11-23T07:09:38.370Z,100563.84
2022-11-23T07:12:05.904Z,100556.47
2022-11-23T07:14:33.154Z,100569.72
2022-11-23T07:17:00.406Z,100566.19
2022-11-23T07:19:27.638Z,100570.66
2022-11-23T07:21:54.946Z,100577.22
2022-11-23T07:24:22.124Z,100574.00
2022-11-23T07:26:52.477Z,100581.19
2022-11-23T07:29:21.169Z,100578.38
2022-11-23T07:31:48.656Z,100580.81
2022-11-23T07:34:15.791Z,100572.13
2022-11-23T07:36:43.115Z,100571.13
2022-11-23T07:39:10.404Z,100580.53
2022-11-23T07:41:37.894Z,100591.25
2022-11-23T07:44:06.118Z,100583.25
2022-11-23T07:46:33.451Z,100585.16
2022-11-23T07:49:02.387Z,100593.84
2022-11-23T07:51:30.192Z,100595.25
2022-11-23T07:53:57.729Z,100580.63
2022-11-23T07:56:25.096Z,100577.53
2022-11-23T07:58:52.290Z,100589.44
2022-11-23T08:01:19.979Z,100586.28
2022-11-23T08:03:49.328Z,100587.94
2022-11-23T08:06:17.363Z,100577.34
2022-11-23T08:08:46.186Z,100575.63
2022-11-23T08:11:17.091Z,100564.13
2022-11-23T08:13:45.035Z,100573.81
2022-11-23T08:16:12.527Z,100564.91
2022-11-23T08:18:39.904Z,100569.53
2022-11-23T08:21:07.401Z,100577.34
2022-11-23T08:23:34.898Z,100566.88
2022-11-23T08:26:07.805Z,100573.78
2022-11-23T08:28:40.036Z,100563.72
2022-11-23T08:31:10.055Z,100557.31
2022-11-23T08:33:38.616Z,100550.72
2022-11-23T08:36:07.650Z,100563.34
2022-11-23T08:38:35.314Z,100569.69
2022-11-23T08:41:03.975Z,100561.59
2022-11-23T08:43:31.919Z,100554.53
2022-11-23T08:46:05.570Z,100571.00
2022-11-23T08:48:34.112Z,100568.09
2022-11-23T08:51:01.562Z,100570.22
2022-11-23T08:53:29.333Z,100561.13
2022-11-23T08:56:00.235Z,100563.63
2022-11-23T08:58:27.621Z,100562.69
2022-11-23T09:00:56.063Z,100559.78
2022-11-23T09:03:24.012Z,100559.22
2022-11-23T09:05:51.542Z,100560.84
2022-11-23T09:08:19.201Z,100554.97
2022-11-23T09:10:46.507Z,100563.16
2022-11-23T09:13:14.247Z,100561.25
2022-11-23T09:15:41.486Z,100568.41
2022-11-23T09:18:10.274Z,100562.97
2022-11-23T09:20:39.943Z,100563.69
2022-11-23T09:23:13.725Z,100557.59
2022-11-23T09:25:43.279Z,100542.19
2022-11-23T09:28:12.623Z,100543.66
2022-11-23T09:30:39.924Z,100550.41
2022-11-23T09:33:10.276Z,100542.84
2022-11-23T09:35:43.450Z,100553.97
2022-11-23T09:38:11.477Z,100551.34
2022-11-23T09:40:42.883Z,100554.66
2022-11-23T09:46:42.480Z,100545.28
2022-11-23T09:49:16.742Z,100551.38
2022-11-23T09:51:45.128Z,100552.19
2022-11-23T09:54:21.989Z,100563.78
2022-11-23T09:56:51.454Z,100559.28
2022-11-23T09:59:31.145Z,100579.53
2022-11-23T10:01:59.286Z,100573.91
2022-11-23T10:04:35.559Z,100570.78
2022-11-23T10:07:43.347Z,100559.34
2022-11-23T10:10:30.290Z,100559.41
2022-11-23T10:13:17.277Z,100553.22
2022-11-23T10:16:04.057Z,100565.00
2022-11-23T10:18:58.404Z,100559.66
2022-11-23T10:22:00.272Z,100559.16
2022-11-23T10:24:38.238Z,100562.66
2022-11-23T10:27:18.225Z,100559.06
2022-11-23T10:29:46.820Z,100555.59
2022-11-23T10:32:32.760Z,100553.09
2022-11-23T10:35:04.965Z,100546.03
2022-11-23T10:37:36.007Z,100549.75
2022-11-23T10:40:05.419Z,100549.81
2022-11-23T10:42:54.688Z,100532.69
2022-11-23T10:45:26.953Z,100544.91
2022-11-23T10:48:01.064Z,100548.53
2022-11-23T10:50:37.556Z,100549.41
2022-11-23T10:53:30.954Z,100557.34
2022-11-23T10:55:59.440Z,100560.06
2022-11-23T10:58:31.755Z,100565.34
2022-11-23T11:01:02.829Z,100556.22
2022-11-23T11:03:36.539Z,100548.03
2022-11-23T11:06:09.188Z,100549.00
2022-11-23T11:09:18.107Z,100553.56
2022-11-23T11:11:55.241Z,100560.72
2022-11-23T11:14:24.731Z,100560.84
2022-11-23T11:16:58.403Z,100546.13
2022-11-23T11:19:32.860Z,100551.59
2022-11-23T11:22:23.158Z,100551.59
2022-11-23T11:24:56.965Z,100554.03
2022-11-23T11:27:24.798Z,100561.97
2022-11-23T11:29:56.139Z,100553.16
2022-11-23T11:32:45.953Z,100540.78
2022-11-23T11:35:25.594Z,100548.47
2022-11-23T11:37:56.339Z,100540.13
2022-11-23T11:40:49.414Z,100528.97
2022-11-23T11:43:34.702Z,100534.25
2022-11-23T11:46:31.140Z,100546.06
2022-11-23T11:49:41.315Z,100538.94
2022-11-23T11:52:29.223Z,100540.28
2022-11-23T11:55:05.489Z,100532.78
2022-11-23T11:57:56.416Z,100522.53
2022-11-23T12:00:23.822Z,100530.06
2022-11-23T12:03:12.335Z,100534.53
2022-11-23T12:05:40.034Z,100535.09
2022-11-23T12:08:17.325Z,100543.84
2022-11-23T12:10:54.576Z,100551.09
2022-11-23T12:13:29.556Z,100557.44
2022-11-23T12:16:02.185Z,100546.16
2022-11-23T12:18:51.419Z,100555.88
2022-11-23T12:21:43.158Z,100547.63
2022-11-23T12:24:35.714Z,100544.19
2022-11-23T12:27:28.207Z,100551.72
